sensor_id;sensor_type;location;lat;lon;timestamp;pressure;altitude;pressure_sealevel;temperature;humidity
65800;BME280;52544;48.116;11.660;2023-08-24T00:01:36;95869.78;;;24.39;100.00
65800;BME280;52544;48.116;11.660;2023-08-24T00:04:01;95875.81;;;24.41;100.00
65800;BME280;52544;48.116;11.660;2023-08-24T00:06:27;95864.13;;;24.34;100.00
65800;BME280;52544;48.116;11.660;2023-08-24T00:08:52;95862.28;;;24.34;100.00
65800;BME280;52544;48.116;11.660;2023-08-24T00:11:18;95860.59;;;24.33;100.00
65800;BME280;52544;48.116;11.660;2023-08-24T00:13:44;95862.47;;;24.33;100.00
65800;BME280;52544;48.116;11.660;2023-08-24T00:16:18;95860.81;;;24.32;100.00
65800;BME280;52544;48.116;11.660;2023-08-24T00:18:44;95856.47;;;24.31;100.00
65800;BME280;52544;48.116;11.660;2023-08-24T00:21:10;95865.59;;;24.30;100.00
65800;BME280;52544;48.116;11.660;2023-08-24T00:23:36;95859.38;;;24.23;100.00
65800;BME280;52544;48.116;11.660;2023-08-24T00:26:01;95862.28;;;24.21;100.00
65800;BME280;52544;48.116;11.660;2023-08-24T00:28:27;95856.69;;;24.23;100.00
65800;BME280;52544;48.116;11.660;2023-08-24T00:30:52;95853.78;;;24.17;100.00
65800;BME280;52544;48.116;11.660;2023-08-24T00:33:17;95860.00;;;24.18;100.00
65800;BME280;52544;48.116;11.660;2023-08-24T00:35:43;95855.84;;;24.15;100.00
65800;BME280;52544;48.116;11.660;2023-08-24T00:38:08;95851.69;;;24.13;100.00
65800;BME280;52544;48.116;11.660;2023-08-24T00:40:34;95854.59;;;24.11;100.00
65800;BME280;52544;48.116;11.660;2023-08-24T00:42:59;95854.38;;;24.06;100.00
65800;BME280;52544;48.116;11.660;2023-08-24T00:45:25;95855.63;;;24.04;100.00
65800;BME280;52544;48.116;11.660;2023-08-24T00:47:51;95856.91;;;24.01;100.00
65800;BME280;52544;48.116;11.660;2023-08-24T00:50:17;95844.19;;;23.95;100.00
65800;BME280;52544;48.116;11.660;2023-08-24T00:52:43;95847.13;;;23.93;100.00
65800;BME280;52544;48.116;11.660;2023-08-24T00:55:10;95847.53;;;23.90;100.00
65800;BME280;52544;48.116;11.660;2023-08-24T00:57:36;95852.94;;;23.90;100.00
65800;BME280;52544;48.116;11.660;2023-08-24T01:00:04;95854.19;;;23.88;100.00
65800;BME280;52544;48.116;11.660;2023-08-24T01:02:37;95853.56;;;23.86;100.00
65800;BME280;52544;48.116;11.660;2023-08-24T01:05:03;95848.16;;;23.79;100.00
65800;BME280;52544;48.116;11.660;2023-08-24T01:07:33;95848.34;;;23.78;100.00
65800;BME280;52544;48.116;11.660;2023-08-24T01:10:00;95848.78;;;23.75;100.00
65800;BME280;52544;48.116;11.660;2023-08-24T01:12:35;95850.84;;;23.73;100.00
65800;BME280;52544;48.116;11.660;2023-08-24T01:15:09;95848.75;;;23.68;100.00
65800;BME280;52544;48.116;11.660;2023-08-24T01:17:39;95843.75;;;23.65;100.00
65800;BME280;52544;48.116;11.660;2023-08-24T01:20:07;95844.78;;;23.64;100.00
65800;BME280;52544;48.116;11.660;2023-08-24T01:22:54;95844.16;;;23.62;100.00
65800;BME280;52544;48.116;11.660;2023-08-24T01:25:26;95844.56;;;23.59;100.00
65800;BME280;52544;48.116;11.660;2023-08-24T01:27:58;95844.53;;;23.52;100.00
65800;BME280;52544;48.116;11.660;2023-08-24T01:30:24;95847.69;;;23.49;100.00
65800;BME280;52544;48.116;11.660;2023-08-24T01:32:51;95839.16;;;23.45;100.00
65800;BME280;52544;48.116;11.660;2023-08-24T01:35:16;95851.19;;;23.43;100.00
65800;BME280;52544;48.116;11.660;2023-08-24T01:37:42;95849.94;;;23.39;100.00
65800;BME280;52544;48.116;11.660;2023-08-24T01:40:23;95846.63;;;23.37;100.00
65800;BME280;52544;48.116;11.660;2023-08-24T01:42:55;95854.28;;;23.33;100.00
65800;BME280;52544;48.116;11.660;2023-08-24T01:45:23;95854.47;;;23.32;100.00
65800;BME280;52544;48.116;11.660;2023-08-24T01:47:49;95853.22;;;23.28;100.00
65800;BME280;52544;48.116;11.660;2023-08-24T01:50:17;95843.44;;;23.27;100.00
65800;BME280;52544;48.116;11.660;2023-08-24T01:52:43;95839.50;;;23.23;100.00
65800;BME280;52544;48.116;11.660;2023-08-24T01:55:09;95840.53;;;23.22;100.00
65800;BME280;52544;48.116;11.660;2023-08-24T01:57:34;95838.25;;;23.18;100.00
65800;BME280;52544;48.116;11.660;2023-08-24T01:59:59;95838.25;;;23.12;100.00
65800;BME280;52544;48.116;11.660;2023-08-24T02:02:25;95836.59;;;23.11;100.00
65800;BME280;52544;48.116;11.660;2023-08-24T02:04:51;95827.00;;;23.08;100.00
65800;BME280;52544;48.116;11.660;2023-08-24T02:07:16;95820.56;;;23.09;100.00
65800;BME280;52544;48.116;11.660;2023-08-24T02:09:41;95821.81;;;23.07;100.00
65800;BME280;52544;48.116;11.660;2023-08-24T02:12:07;95820.34;;;23.04;100.00
65800;BME280;52544;48.116;11.660;2023-08-24T02:14:32;95819.91;;;23.01;100.00
65800;BME280;52544;48.116;11.660;2023-08-24T02:16:58;95820.97;;;23.00;100.00
65800;BME280;52544;48.116;11.660;2023-08-24T02:19:23;95813.69;;;23.00;100.00
65800;BME280;52544;48.116;11.660;2023-08-24T02:21:49;95826.56;;;22.98;100.00
65800;BME280;52544;48.116;11.660;2023-08-24T02:24:14;95819.09;;;23.00;100.00
65800;BME280;52544;48.116;11.660;2023-08-24T02:26:39;95813.09;;;22.98;100.00
65800;BME280;52544;48.116;11.660;2023-08-24T02:29:05;95814.50;;;22.94;100.00
65800;BME280;52544;48.116;11.660;2023-08-24T02:31:31;95816.56;;;22.92;100.00
65800;BME280;52544;48.116;11.660;2023-08-24T02:33:56;95815.53;;;22.93;100.00
65800;BME280;52544;48.116;11.660;2023-08-24T02:36:22;95809.88;;;22.88;100.00
65800;BME280;52544;48.116;11.660;2023-08-24T02:38:47;95797.81;;;22.84;100.00
65800;BME280;52544;48.116;11.660;2023-08-24T02:41:13;95801.34;;;22.78;100.00
65800;BME280;52544;48.116;11.660;2023-08-24T02:43:39;95810.03;;;22.73;100.00
65800;BME280;52544;48.116;11.660;2023-08-24T02:46:07;95810.66;;;22.75;100.00
65800;BME280;52544;48.116;11.660;2023-08-24T02:48:33;95808.16;;;22.74;100.00
65800;BME280;52544;48.116;11.660;2023-08-24T02:50:59;95800.09;;;22.74;100.00
65800;BME280;52544;48.116;11.660;2023-08-24T02:53:25;95805.66;;;22.72;100.00
65800;BME280;52544;48.116;11.660;2023-08-24T02:55:51;95799.03;;;22.75;100.00
65800;BME280;52544;48.116;11.660;2023-08-24T02:58:16;95801.13;;;22.73;100.00
65800;BME280;52544;48.116;11.660;2023-08-24T03:00:42;95796.13;;;22.69;100.00
65800;BME280;52544;48.116;11.660;2023-08-24T03:03:07;95793.81;;;22.66;100.00
65800;BME280;52544;48.116;11.660;2023-08-24T03:05:33;95800.03;;;22.60;100.00
65800;BME280;52544;48.116;11.660;2023-08-24T03:07:58;95792.72;;;22.54;100.00
65800;BME280;52544;48.116;11.660;2023-08-24T03:10:24;95791.06;;;22.53;100.00
65800;BME280;52544;48.116;11.660;2023-08-24T03:12:49;95779.41;;;22.46;100.00
65800;BME280;52544;48.116;11.660;2023-08-24T03:15:15;95780.44;;;22.45;100.00
65800;BME280;52544;48.116;11.660;2023-08-24T03:17:41;95780.44;;;22.45;100.00
65800;BME280;52544;48.116;11.660;2023-08-24T03:20:07;95779.19;;;22.41;100.00
65800;BME280;52544;48.116;11.660;2023-08-24T03:22:33;95781.66;;;22.36;100.00
65800;BME280;52544;48.116;11.660;2023-08-24T03:24:59;95778.13;;;22.35;100.00
65800;BME280;52544;48.116;11.660;2023-08-24T03:27:24;95775.59;;;22.34;100.00
65800;BME280;52544;48.116;11.660;2023-08-24T03:29:52;95777.69;;;22.32;100.00
65800;BME280;52544;48.116;11.660;2023-08-24T03:32:17;95776.84;;;22.31;100.00
65800;BME280;52544;48.116;11.660;2023-08-24T03:34:42;95778.06;;;22.29;100.00
65800;BME280;52544;48.116;11.660;2023-08-24T03:37:08;95773.94;;;22.26;100.00
65800;BME280;52544;48.116;11.660;2023-08-24T03:39:33;95772.44;;;22.24;100.00
65800;BME280;52544;48.116;11.660;2023-08-24T03:42:01;95780.16;;;22.27;100.00
65800;BME280;52544;48.116;11.660;2023-08-24T03:44:26;95775.38;;;22.29;100.00
65800;BME280;52544;48.116;11.660;2023-08-24T03:46:52;95773.34;;;22.31;100.00
65800;BME280;52544;48.116;11.660;2023-08-24T03:49:17;95778.28;;;22.27;100.00
65800;BME280;52544;48.116;11.660;2023-08-24T03:51:42;95775.97;;;22.24;100.00
65800;BME280;52544;48.116;11.660;2023-08-24T03:54:08;95774.75;;;22.27;100.00
65800;BME280;52544;48.116;11.660;2023-08-24T03:56:33;95774.09;;;22.25;100.00
65800;BME280;52544;48.116;11.660;2023-08-24T03:58:59;95766.03;;;22.25;100.00
65800;BME280;52544;48.116;11.660;2023-08-24T04:01:24;95775.97;;;22.24;100.00
65800;BME280;52544;48.116;11.660;2023-08-24T04:03:49;95771.81;;;22.21;100.00
65800;BME280;52544;48.116;11.660;2023-08-24T04:06:17;95773.06;;;22.19;100.00
65800;BME280;52544;48.116;11.660;2023-08-24T04:08:44;95781.72;;;22.14;100.00
65800;BME280;52544;48.116;11.660;2023-08-24T04:11:10;95772.59;;;22.15;100.00
65800;BME280;52544;48.116;11.660;2023-08-24T04:13:35;95785.03;;;22.16;100.00
65800;BME280;52544;48.116;11.660;2023-08-24T04:16:01;95785.03;;;22.16;100.00
65800;BME280;52544;48.116;11.660;2023-08-24T04:18:26;95783.78;;;22.12;100.00
65800;BME280;52544;48.116;11.660;2023-08-24T04:20:52;95788.53;;;22.10;100.00
65800;BME280;52544;48.116;11.660;2023-08-24T04:23:26;95784.56;;;22.06;100.00
65800;BME280;52544;48.116;11.660;2023-08-24T04:25:53;95782.91;;;22.05;100.00
65800;BME280;52544;48.116;11.660;2023-08-24T04:28:19;95786.59;;;22.04;100.00
65800;BME280;52544;48.116;11.660;2023-08-24T04:30:54;95786.59;;;22.04;100.00
65800;BME280;52544;48.116;11.660;2023-08-24T04:33:21;95787.00;;;22.01;100.00
65800;BME280;52544;48.116;11.660;2023-08-24T04:35:47;95791.75;;;21.99;100.00
65800;BME280;52544;48.116;11.660;2023-08-24T04:38:13;95794.44;;;21.99;100.00
65800;BME280;52544;48.116;11.660;2023-08-24T04:41:06;95800.47;;;22.01;100.00
65800;BME280;52544;48.116;11.660;2023-08-24T04:43:32;95798.63;;;22.02;100.00
65800;BME280;52544;48.116;11.660;2023-08-24T04:45:58;95798.22;;;22.05;100.00
65800;BME280;52544;48.116;11.660;2023-08-24T04:48:24;95802.75;;;22.04;100.00
65800;BME280;52544;48.116;11.660;2023-08-24T04:50:51;95800.06;;;22.04;100.00
65800;BME280;52544;48.116;11.660;2023-08-24T04:53:19;95794.06;;;22.02;100.00
65800;BME280;52544;48.116;11.660;2023-08-24T04:55:45;95793.22;;;22.02;100.00
65800;BME280;52544;48.116;11.660;2023-08-24T04:58:11;95795.28;;;22.00;100.00
65800;BME280;52544;48.116;11.660;2023-08-24T05:00:37;95796.69;;;21.95;100.00
65800;BME280;52544;48.116;11.660;2023-08-24T05:03:03;95792.41;;;22.01;100.00
65800;BME280;52544;48.116;11.660;2023-08-24T05:05:30;95795.47;;;21.98;100.00
65800;BME280;52544;48.116;11.660;2023-08-24T05:07:57;95794.44;;;21.99;100.00
65800;BME280;52544;48.116;11.660;2023-08-24T05:10:22;95791.75;;;21.99;100.00
65800;BME280;52544;48.116;11.660;2023-08-24T05:12:48;95790.72;;;22.00;100.00
65800;BME280;52544;48.116;11.660;2023-08-24T05:15:13;95793.84;;;22.04;100.00
65800;BME280;52544;48.116;11.660;2023-08-24T05:17:39;95799.69;;;22.07;100.00
65800;BME280;52544;48.116;11.660;2023-08-24T05:20:06;95794.94;;;22.09;100.00
65800;BME280;52544;48.116;11.660;2023-08-24T05:22:33;95795.94;;;22.08;100.00
65800;BME280;52544;48.116;11.660;2023-08-24T05:24:58;95791.59;;;22.07;100.00
65800;BME280;52544;48.116;11.660;2023-08-24T05:27:23;95796.41;;;22.12;100.00
65800;BME280;52544;48.116;11.660;2023-08-24T05:29:49;95796.88;;;22.15;100.00
65800;BME280;52544;48.116;11.660;2023-08-24T05:32:14;95800.00;;;22.19;100.00
65800;BME280;52544;48.116;11.660;2023-08-24T05:34:40;95799.78;;;22.20;100.00
65800;BME280;52544;48.116;11.660;2023-08-24T05:37:05;95796.50;;;22.25;100.00
65800;BME280;52544;48.116;11.660;2023-08-24T05:39:30;95794.69;;;22.32;100.00
65800;BME280;52544;48.116;11.660;2023-08-24T05:41:56;95804.44;;;22.33;100.00
65800;BME280;52544;48.116;11.660;2023-08-24T05:44:21;95801.13;;;22.38;100.00
65800;BME280;52544;48.116;11.660;2023-08-24T05:46:47;95799.72;;;22.42;100.00
65800;BME280;52544;48.116;11.660;2023-08-24T05:49:13;95792.28;;;22.44;100.00
65800;BME280;52544;48.116;11.660;2023-08-24T05:51:39;95789.81;;;22.49;100.00
65800;BME280;52544;48.116;11.660;2023-08-24T05:54:04;95786.88;;;22.51;100.00
65800;BME280;52544;48.116;11.660;2023-08-24T05:58:59;95791.34;;;22.65;100.00
65800;BME280;52544;48.116;11.660;2023-08-24T06:01:25;95796.13;;;22.69;100.00
65800;BME280;52544;48.116;11.660;2023-08-24T06:03:51;95784.72;;;22.74;100.00
65800;BME280;52544;48.116;11.660;2023-08-24T06:06:16;95796.56;;;22.73;100.00
65800;BME280;52544;48.116;11.660;2023-08-24T06:08:42;95795.50;;;22.74;100.00
65800;BME280;52544;48.116;11.660;2023-08-24T06:11:07;95792.81;;;22.81;100.00
65800;BME280;52544;48.116;11.660;2023-08-24T06:13:33;95789.72;;;22.84;100.00
65800;BME280;52544;48.116;11.660;2023-08-24T06:15:58;95792.03;;;22.87;100.00
65800;BME280;52544;48.116;11.660;2023-08-24T06:18:24;95780.66;;;22.91;100.00
65800;BME280;52544;48.116;11.660;2023-08-24T06:20:49;95778.00;;;22.98;100.00
65800;BME280;52544;48.116;11.660;2023-08-24T06:23:18;95773.47;;;23.12;100.00
65800;BME280;52544;48.116;11.660;2023-08-24T06:25:44;95769.50;;;23.28;100.00
65800;BME280;52544;48.116;11.660;2023-08-24T06:28:11;95773.91;;;23.42;100.00
65800;BME280;52544;48.116;11.660;2023-08-24T06:30:40;95776.41;;;23.50;100.00
65800;BME280;52544;48.116;11.660;2023-08-24T06:33:08;95767.28;;;23.58;100.00
65800;BME280;52544;48.116;11.660;2023-08-24T06:35:34;95765.25;;;23.66;100.00
65800;BME280;52544;48.116;11.660;2023-08-24T06:38:00;95763.16;;;23.75;100.00
65800;BME280;52544;48.116;11.660;2023-08-24T06:40:25;95772.91;;;23.83;100.00
65800;BME280;52544;48.116;11.660;2023-08-24T06:42:51;95769.56;;;23.94;100.00
65800;BME280;52544;48.116;11.660;2023-08-24T06:45:17;95766.25;;;24.05;100.00
65800;BME280;52544;48.116;11.660;2023-08-24T06:47:43;95763.91;;;24.15;100.00
65800;BME280;52544;48.116;11.660;2023-08-24T06:50:09;95754.34;;;24.26;100.00
65800;BME280;52544;48.116;11.660;2023-08-24T06:52:35;95763.25;;;24.33;100.00
65800;BME280;52544;48.116;11.660;2023-08-24T06:55:01;95762.84;;;24.43;100.00
65800;BME280;52544;48.116;11.660;2023-08-24T06:57:26;95765.94;;;24.47;100.00
65800;BME280;52544;48.116;11.660;2023-08-24T06:59:52;95764.47;;;24.51;100.00
65800;BME280;52544;48.116;11.660;2023-08-24T07:02:17;95756.94;;;24.59;100.00
65800;BME280;52544;48.116;11.660;2023-08-24T07:04:44;95756.06;;;24.72;100.00
65800;BME280;52544;48.116;11.660;2023-08-24T07:07:10;95759.38;;;24.81;100.00
65800;BME280;52544;48.116;11.660;2023-08-24T07:09:36;95750.81;;;24.84;100.00
65800;BME280;52544;48.116;11.660;2023-08-24T07:12:02;95756.22;;;24.84;100.00
65800;BME280;52544;48.116;11.660;2023-08-24T07:14:28;95734.38;;;24.85;100.00
65800;BME280;52544;48.116;11.660;2023-08-24T07:16:53;95735.13;;;24.92;100.00
65800;BME280;52544;48.116;11.660;2023-08-24T07:19:19;95742.00;;;24.95;100.00
65800;BME280;52544;48.116;11.660;2023-08-24T07:21:44;95741.13;;;25.01;100.00
65800;BME280;52544;48.116;11.660;2023-08-24T07:24:10;95733.41;;;25.11;100.00
65800;BME280;52544;48.116;11.660;2023-08-24T07:26:36;95730.25;;;25.14;100.00
65800;BME280;52544;48.116;11.660;2023-08-24T07:29:01;95728.75;;;25.18;100.00
65800;BME280;52544;48.116;11.660;2023-08-24T07:31:26;95732.66;;;25.29;100.00
65800;BME280;52544;48.116;11.660;2023-08-24T07:33:52;95734.72;;;25.34;100.00
65800;BME280;52544;48.116;11.660;2023-08-24T07:36:17;95730.75;;;25.36;100.00
65800;BME280;52544;48.116;11.660;2023-08-24T07:38:45;95732.94;;;25.46;100.00
65800;BME280;52544;48.116;11.660;2023-08-24T07:41:11;95729.63;;;25.44;100.00
65800;BME280;52544;48.116;11.660;2023-08-24T07:43:37;95728.31;;;25.53;100.00
65800;BME280;52544;48.116;11.660;2023-08-24T07:46:02;95721.19;;;25.59;100.00
65800;BME280;52544;48.116;11.660;2023-08-24T07:48:28;95717.38;;;25.66;100.00
65800;BME280;52544;48.116;11.660;2023-08-24T07:50:53;95712.69;;;25.74;100.00
65800;BME280;52544;48.116;11.660;2023-08-24T07:53:19;95718.50;;;25.84;100.00
65800;BME280;52544;48.116;11.660;2023-08-24T07:55:45;95711.56;;;25.88;100.00
65800;BME280;52544;48.116;11.660;2023-08-24T07:58:11;95722.94;;;25.97;100.00
65800;BME280;52544;48.116;11.660;2023-08-24T08:00:37;95724.56;;;26.04;100.00
65800;BME280;52544;48.116;11.660;2023-08-24T08:03:03;95730.72;;;26.11;100.00
65800;BME280;52544;48.116;11.660;2023-08-24T08:05:28;95722.81;;;26.10;100.00
65800;BME280;52544;48.116;11.660;2023-08-24T08:07:54;95719.19;;;26.16;100.00
65800;BME280;52544;48.116;11.660;2023-08-24T08:10:19;95714.47;;;26.30;100.00
65800;BME280;52544;48.116;11.660;2023-08-24T08:12:46;95720.47;;;26.32;100.00
65800;BME280;52544;48.116;11.660;2023-08-24T08:15:11;95713.41;;;26.49;100.00
65800;BME280;52544;48.116;11.660;2023-08-24T08:17:37;95714.47;;;26.48;100.00
65800;BME280;52544;48.116;11.660;2023-08-24T08:20:03;95717.72;;;26.57;100.00
65800;BME280;52544;48.116;11.660;2023-08-24T08:22:28;95712.03;;;26.58;100.00
65800;BME280;52544;48.116;11.660;2023-08-24T08:24:54;95714.31;;;26.61;100.00
65800;BME280;52544;48.116;11.660;2023-08-24T08:27:21;95709.41;;;26.70;100.00
65800;BME280;52544;48.116;11.660;2023-08-24T08:29:47;95703.28;;;26.75;100.00
65800;BME280;52544;48.116;11.660;2023-08-24T08:32:13;95706.50;;;26.83;100.00
65800;BME280;52544;48.116;11.660;2023-08-24T08:34:38;95706.44;;;26.90;100.00
65800;BME280;52544;48.116;11.660;2023-08-24T08:37:04;95699.16;;;27.02;100.00
65800;BME280;52544;48.116;11.660;2023-08-24T08:39:31;95694.06;;;27.06;100.00
65800;BME280;52544;48.116;11.660;2023-08-24T08:41:57;95699.69;;;27.11;100.00
65800;BME280;52544;48.116;11.660;2023-08-24T08:44:22;95701.22;;;27.19;100.00
65800;BME280;52544;48.116;11.660;2023-08-24T08:46:49;95700.88;;;27.27;100.00
65800;BME280;52544;48.116;11.660;2023-08-24T08:49:16;95698.91;;;27.34;100.00
65800;BME280;52544;48.116;11.660;2023-08-24T08:51:42;95692.31;;;27.41;100.00
65800;BME280;52544;48.116;11.660;2023-08-24T08:54:08;95698.22;;;27.50;100.00
65800;BME280;52544;48.116;11.660;2023-08-24T08:56:34;95699.16;;;27.56;100.00
65800;BME280;52544;48.116;11.660;2023-08-24T08:59:00;95704.06;;;27.65;100.00
65800;BME280;52544;48.116;11.660;2023-08-24T09:01:27;95706.88;;;27.71;100.00
65800;BME280;52544;48.116;11.660;2023-08-24T09:03:53;95703.84;;;27.79;100.00
65800;BME280;52544;48.116;11.660;2023-08-24T09:06:20;95706.69;;;27.84;100.00
65800;BME280;52544;48.116;11.660;2023-08-24T09:08:47;95701.97;;;27.91;100.00
65800;BME280;52544;48.116;11.660;2023-08-24T09:11:12;95703.25;;;28.00;100.00
65800;BME280;52544;48.116;11.660;2023-08-24T09:13:38;95688.22;;;28.09;100.00
65800;BME280;52544;48.116;11.660;2023-08-24T09:16:05;95695.56;;;28.21;100.00
65800;BME280;52544;48.116;11.660;2023-08-24T09:18:39;95693.28;;;28.29;100.00
65800;BME280;52544;48.116;11.660;2023-08-24T09:21:12;95695.66;;;28.37;100.00
65800;BME280;52544;48.116;11.660;2023-08-24T09:23:45;95687.72;;;28.48;100.00
65800;BME280;52544;48.116;11.660;2023-08-24T09:26:11;95685.34;;;28.51;100.00
65800;BME280;52544;48.116;11.660;2023-08-24T09:28:37;95675.03;;;28.53;100.00
65800;BME280;52544;48.116;11.660;2023-08-24T09:31:04;95671.34;;;28.59;100.00
65800;BME280;52544;48.116;11.660;2023-08-24T09:33:30;95652.38;;;28.64;100.00
65800;BME280;52544;48.116;11.660;2023-08-24T09:35:56;95644.41;;;28.75;100.00
65800;BME280;52544;48.116;11.660;2023-08-24T09:38:27;95636.44;;;28.85;100.00
65800;BME280;52544;48.116;11.660;2023-08-24T09:40:56;95636.16;;;28.98;100.00
65800;BME280;52544;48.116;11.660;2023-08-24T09:43:22;95624.94;;;29.11;100.00
65800;BME280;52544;48.116;11.660;2023-08-24T09:45:55;95613.88;;;29.18;100.00
65800;BME280;52544;48.116;11.660;2023-08-24T09:48:21;95623.13;;;29.34;100.00
65800;BME280;52544;48.116;11.660;2023-08-24T09:50:50;95619.03;;;29.48;100.00
65800;BME280;52544;48.116;11.660;2023-08-24T09:53:21;95623.00;;;29.57;100.00
65800;BME280;52544;48.116;11.660;2023-08-24T09:56:01;95636.22;;;29.66;100.00
65800;BME280;52544;48.116;11.660;2023-08-24T09:58:28;95633.78;;;29.52;100.00
65800;BME280;52544;48.116;11.660;2023-08-24T10:00:55;95631.72;;;29.43;100.00
65800;BME280;52544;48.116;11.660;2023-08-24T10:03:25;95619.50;;;29.45;100.00
65800;BME280;52544;48.116;11.660;2023-08-24T10:05:56;95618.94;;;29.60;100.00
65800;BME280;52544;48.116;11.660;2023-08-24T10:08:35;95615.69;;;29.80;100.00
65800;BME280;52544;48.116;11.660;2023-08-24T10:11:01;95618.31;;;29.92;100.00
65800;BME280;52544;48.116;11.660;2023-08-24T10:13:50;95613.81;;;30.02;100.00
65800;BME280;52544;48.116;11.660;2023-08-24T10:16:19;95605.88;;;30.18;100.00
65800;BME280;52544;48.116;11.660;2023-08-24T10:18:47;95607.13;;;30.32;100.00
65800;BME280;52544;48.116;11.660;2023-08-24T10:21:12;95596.19;;;30.54;96.38
65800;BME280;52544;48.116;11.660;2023-08-24T10:23:38;95591.63;;;30.59;92.92
65800;BME280;52544;48.116;11.660;2023-08-24T10:26:06;95592.75;;;30.63;95.33
65800;BME280;52544;48.116;11.660;2023-08-24T10:28:32;95591.25;;;30.73;92.13
65800;BME280;52544;48.116;11.660;2023-08-24T10:30:59;95582.63;;;30.86;90.80
65800;BME280;52544;48.116;11.660;2023-08-24T10:33:25;95576.09;;;30.92;84.71
65800;BME280;52544;48.116;11.660;2023-08-24T10:35:51;95566.41;;;31.06;90.25
65800;BME280;52544;48.116;11.660;2023-08-24T10:38:28;95565.72;;;31.21;91.96
65800;BME280;52544;48.116;11.660;2023-08-24T10:41:01;95571.06;;;31.38;90.37
65800;BME280;52544;48.116;11.660;2023-08-24T10:43:28;95564.00;;;31.47;83.03
65800;BME280;52544;48.116;11.660;2023-08-24T10:45:57;95576.69;;;31.64;83.01
65800;BME280;52544;48.116;11.660;2023-08-24T10:48:28;95562.84;;;31.75;84.50
65800;BME280;52544;48.116;11.660;2023-08-24T10:54:00;95556.69;;;32.00;75.04
65800;BME280;52544;48.116;11.660;2023-08-24T10:56:38;95544.44;;;32.13;75.08
65800;BME280;52544;48.116;11.660;2023-08-24T10:59:17;95537.88;;;32.19;85.31
65800;BME280;52544;48.116;11.660;2023-08-24T11:04:17;95535.00;;;32.46;59.89
65800;BME280;52544;48.116;11.660;2023-08-24T11:06:52;95525.69;;;32.52;62.36
65800;BME280;52544;48.116;11.660;2023-08-24T11:09:18;95530.09;;;32.69;63.59
65800;BME280;52544;48.116;11.660;2023-08-24T11:11:55;95527.41;;;32.94;61.66
65800;BME280;52544;48.116;11.660;2023-08-24T11:14:22;95528.53;;;32.98;46.34
65800;BME280;52544;48.116;11.660;2023-08-24T11:16:50;95523.03;;;33.19;45.33
65800;BME280;52544;48.116;11.660;2023-08-24T11:19:16;95518.91;;;33.37;50.47
65800;BME280;52544;48.116;11.660;2023-08-24T11:21:46;95514.50;;;33.51;55.04
65800;BME280;52544;48.116;11.660;2023-08-24T11:24:15;95514.75;;;33.59;67.06
65800;BME280;52544;48.116;11.660;2023-08-24T11:26:46;95513.09;;;33.64;56.84
65800;BME280;52544;48.116;11.660;2023-08-24T11:29:12;95513.38;;;33.67;55.70
65800;BME280;52544;48.116;11.660;2023-08-24T11:31:38;95499.41;;;33.69;51.92
65800;BME280;52544;48.116;11.660;2023-08-24T11:34:05;95503.16;;;33.88;51.42
65800;BME280;52544;48.116;11.660;2023-08-24T11:36:45;95499.31;;;33.99;63.82
65800;BME280;52544;48.116;11.660;2023-08-24T11:39:29;95486.41;;;34.00;61.12
65800;BME280;52544;48.116;11.660;2023-08-24T11:42:04;95486.97;;;33.97;53.16
65800;BME280;52544;48.116;11.660;2023-08-24T11:44:44;95480.38;;;33.88;54.94
65800;BME280;52544;48.116;11.660;2023-08-24T11:47:11;95475.16;;;33.91;48.62
65800;BME280;52544;48.116;11.660;2023-08-24T11:49:37;95477.91;;;33.91;48.67
65800;BME280;52544;48.116;11.660;2023-08-24T11:52:03;95467.69;;;34.12;51.23
65800;BME280;52544;48.116;11.660;2023-08-24T11:54:28;95471.25;;;34.13;44.78
65800;BME280;52544;48.116;11.660;2023-08-24T11:56:53;95472.00;;;34.23;45.39
65800;BME280;52544;48.116;11.660;2023-08-24T11:59:19;95472.94;;;34.53;43.67
65800;BME280;52544;48.116;11.660;2023-08-24T12:01:47;95480.38;;;34.52;48.54
65800;BME280;52544;48.116;11.660;2023-08-24T12:04:12;95475.47;;;34.39;46.68
65800;BME280;52544;48.116;11.660;2023-08-24T12:06:37;95465.28;;;34.45;43.58
65800;BME280;52544;48.116;11.660;2023-08-24T12:09:05;95472.16;;;34.47;42.88
65800;BME280;52544;48.116;11.660;2023-08-24T12:11:35;95461.91;;;34.63;46.58
65800;BME280;52544;48.116;11.660;2023-08-24T12:14:02;95460.50;;;34.66;45.45
65800;BME280;52544;48.116;11.660;2023-08-24T12:16:31;95457.75;;;34.66;50.12
65800;BME280;52544;48.116;11.660;2023-08-24T12:18:59;95456.09;;;34.65;39.59
65800;BME280;52544;48.116;11.660;2023-08-24T12:21:29;95459.00;;;34.78;41.19
65800;BME280;52544;48.116;11.660;2023-08-24T12:24:02;95448.84;;;34.79;38.06
65800;BME280;52544;48.116;11.660;2023-08-24T12:26:32;95448.06;;;34.73;44.66
65800;BME280;52544;48.116;11.660;2023-08-24T12:29:02;95446.94;;;34.79;50.49
65800;BME280;52544;48.116;11.660;2023-08-24T12:31:28;95441.19;;;34.76;43.05
65800;BME280;52544;48.116;11.660;2023-08-24T12:34:01;95440.59;;;34.79;45.22
65800;BME280;52544;48.116;11.660;2023-08-24T12:36:27;95430.44;;;34.79;47.14
65800;BME280;52544;48.116;11.660;2023-08-24T12:38:52;95425.09;;;34.93;43.73
65800;BME280;52544;48.116;11.660;2023-08-24T12:41:18;95429.19;;;34.96;44.15
65800;BME280;52544;48.116;11.660;2023-08-24T12:43:43;95420.28;;;34.80;36.48
65800;BME280;52544;48.116;11.660;2023-08-24T12:46:09;95410.34;;;34.84;46.47
65800;BME280;52544;48.116;11.660;2023-08-24T12:48:34;95414.31;;;35.02;45.10
65800;BME280;52544;48.116;11.660;2023-08-24T12:51:00;95419.69;;;34.83;42.38